Time;durP1;ratioP1;P1;durP2;ratioP2;P2;SDS_P1;SDS_P2;PMS_P1;PMS_P2;Temp;Humidity;BMP_temperature;BMP_pressure;BME280_temperature;BME280_humidity;BME280_pressure;Samples;Min_cycle;Max_cycle;Signal;HPM_P1;HPM_P2
2021/09/24 00:02:07;;;;;;;6.17;4.90;;;6.60;99.90;;;7.08;100.00;95354.00;2276375;56;26135;-56
2021/09/24 00:04:53;;;;;;;6.67;4.90;;;6.60;99.90;;;7.01;100.00;95354.00;2494406;55;26071;-56
2021/09/24 00:07:40;;;;;;;7.10;5.13;;;6.60;99.90;;;7.06;100.00;95357.00;2255270;55;26159;-56
2021/09/24 00:10:26;;;;;;;5.23;4.30;;;6.60;99.90;;;7.09;100.00;95356.00;2265998;55;26163;-56
2021/09/24 00:13:13;;;;;;;6.20;5.40;;;6.60;99.90;;;7.01;100.00;95358.00;2495288;55;26595;-56
2021/09/24 00:15:59;;;;;;;6.70;5.40;;;6.60;99.90;;;6.92;100.00;95351.00;2266549;55;26606;-56
2021/09/24 00:18:45;;;;;;;6.77;5.30;;;6.50;99.90;;;6.84;100.00;95343.00;2495527;55;26144;-57
2021/09/24 00:24:29;;;;;;;5.53;5.03;;;6.50;99.90;;;7.06;100.00;95320.00;2249454;56;33297;-57
2021/09/24 00:27:16;;;;;;;5.83;4.90;;;6.50;99.90;;;6.98;100.00;95341.00;2235177;56;26195;-57
2021/09/24 00:30:04;;;;;;;5.40;4.83;;;6.50;99.90;;;7.08;100.00;95341.00;2234978;56;26202;-57
2021/09/24 00:32:51;;;;;;;8.17;4.60;;;6.60;99.90;;;7.15;100.00;95339.00;2236249;57;26126;-57
2021/09/24 00:35:37;;;;;;;5.37;4.43;;;6.60;99.90;;;7.01;100.00;95343.00;2459588;55;26751;-57
2021/09/24 00:38:24;;;;;;;6.13;4.50;;;6.50;99.90;;;6.85;100.00;95342.00;2236878;57;26109;-58
2021/09/24 00:41:11;;;;;;;6.00;4.90;;;6.50;99.90;;;6.83;100.00;95339.00;2458646;56;26368;-58
2021/09/24 00:46:56;;;;;;;5.90;4.93;;;6.50;99.90;;;7.16;100.00;95315.00;2235269;56;33328;-57
2021/09/24 00:49:42;;;;;;;6.50;5.30;;;6.60;99.90;;;7.07;100.00;95348.00;2234340;56;26630;-57
2021/09/24 00:52:29;;;;;;;6.47;4.87;;;6.60;99.90;;;7.12;100.00;95345.00;2443780;55;26178;-57
2021/09/24 00:55:15;;;;;;;5.70;4.80;;;6.60;99.90;;;7.09;100.00;95343.00;2213843;56;26151;-56
2021/09/24 00:58:01;;;;;;;5.97;5.20;;;6.60;99.90;;;7.11;100.00;95339.00;2234107;56;26124;-57
2021/09/24 01:00:48;;;;;;;5.47;4.87;;;6.70;99.90;;;7.17;100.00;95340.00;2460792;55;26242;-57
2021/09/24 01:03:35;;;;;;;6.23;5.50;;;6.60;99.90;;;7.08;100.00;95334.00;2222308;56;26160;-58
2021/09/24 01:06:21;;;;;;;6.77;5.43;;;6.60;99.90;;;7.05;100.00;95344.00;2442011;55;26177;-57
2021/09/24 01:09:08;;;;;;;5.83;5.10;;;6.50;99.90;;;6.95;100.00;95341.00;2210934;56;26514;-57
2021/09/24 01:11:54;;;;;;;6.47;5.27;;;6.50;99.90;;;6.88;100.00;95337.00;2428742;56;26109;-57
2021/09/24 01:14:41;;;;;;;6.20;5.20;;;6.40;99.90;;;6.75;100.00;95340.00;2211315;56;26634;-57
2021/09/24 01:17:27;;;;;;;8.20;5.30;;;6.30;99.90;;;6.66;100.00;95330.00;2428868;56;26245;-58
2021/09/24 01:20:17;;;;;;;15.00;11.30;;;6.30;99.90;;;6.75;100.00;95321.00;2254793;55;26627;-57
2021/09/24 01:23:03;;;;;;;15.40;10.70;;;6.30;99.90;;;6.69;100.00;95317.00;2440690;55;26629;-57
2021/09/24 01:25:50;;;;;;;38.57;28.63;;;6.30;99.90;;;6.67;100.00;95331.00;2234290;56;26700;-58
2021/09/24 01:28:36;;;;;;;15.43;11.47;;;6.30;99.90;;;6.63;100.00;95328.00;2238766;56;26118;-57
2021/09/24 01:31:23;;;;;;;8.47;6.93;;;6.20;99.90;;;6.60;100.00;95328.00;2238831;56;26777;-56
2021/09/24 01:34:10;;;;;;;8.20;6.40;;;6.20;99.90;;;6.56;100.00;95325.00;2238286;56;26688;-57
2021/09/24 01:36:56;;;;;;;6.33;5.63;;;6.10;99.90;;;6.49;100.00;95318.00;2239297;56;26258;-57
2021/09/24 01:39:43;;;;;;;6.70;6.00;;;6.10;99.90;;;6.52;100.00;95321.00;2238312;56;26130;-57
2021/09/24 01:42:30;;;;;;;6.77;5.47;;;6.10;99.90;;;6.60;100.00;95317.00;2238487;56;26146;-57
2021/09/24 01:45:17;;;;;;;6.23;5.40;;;6.20;99.90;;;6.68;100.00;95316.00;2244693;56;26186;-57
2021/09/24 01:48:04;;;;;;;4.97;4.47;;;6.10;99.90;;;6.57;100.00;95312.00;2262143;56;26612;-57
2021/09/24 01:50:51;;;;;;;5.67;5.10;;;6.10;99.90;;;6.44;100.00;95307.00;2218201;57;26502;-57
2021/09/24 01:53:37;;;;;;;5.67;4.87;;;6.00;99.90;;;6.39;100.00;95299.00;2213368;56;26092;-57
2021/09/24 01:56:23;;;;;;;6.60;5.10;;;6.00;99.90;;;6.38;100.00;95299.00;2431070;57;26124;-57
2021/09/24 01:59:10;;;;;;;7.50;5.23;;;6.10;99.90;;;6.45;100.00;95287.00;2217563;56;26075;-57
2021/09/24 02:01:56;;;;;;;5.30;4.60;;;6.10;99.90;;;6.55;100.00;95286.00;2459470;56;26080;-57
2021/09/24 02:04:43;;;;;;;6.70;5.10;;;6.20;99.90;;;6.58;100.00;95297.00;2236656;57;26657;-57
2021/09/24 02:07:29;;;;;;;6.30;5.53;;;6.20;99.90;;;6.61;100.00;95296.00;2459882;56;26136;-58
2021/09/24 02:10:15;;;;;;;7.50;5.90;;;6.20;99.90;;;6.72;100.00;95306.00;2236079;56;26211;-58
2021/09/24 02:13:03;;;;;;;8.37;6.27;;;6.30;99.90;;;6.88;100.00;95303.00;2235467;57;26306;-57
2021/09/24 02:15:50;;;;;;;6.20;5.40;;;6.40;99.90;;;6.83;100.00;95298.00;2216150;57;26171;-58
2021/09/24 02:18:37;;;;;;;7.87;5.57;;;6.50;99.90;;;6.93;100.00;95293.00;2211630;57;26608;-57
2021/09/24 02:21:23;;;;;;;6.87;5.57;;;6.50;99.90;;;7.01;100.00;95301.00;2224440;56;26593;-57
2021/09/24 02:24:12;;;;;;;5.60;4.80;;;6.60;99.90;;;7.08;100.00;95302.00;2235372;57;26198;-57
2021/09/24 02:26:59;;;;;;;6.90;5.10;;;6.50;99.90;;;6.94;100.00;95303.00;2459804;56;26155;-57
2021/09/24 02:29:45;;;;;;;7.20;4.87;;;6.50;99.90;;;6.91;100.00;95303.00;2236697;57;26111;-57
2021/09/24 02:32:32;;;;;;;5.23;4.60;;;6.40;99.90;;;6.79;100.00;95317.00;2459574;56;26139;-58
2021/09/24 02:35:18;;;;;;;9.17;5.10;;;6.40;99.90;;;6.69;100.00;95311.00;2236846;56;26667;-58
2021/09/24 02:38:05;;;;;;;6.43;4.73;;;6.30;99.90;;;6.67;100.00;95309.00;2459811;56;26068;-57
2021/09/24 02:43:50;;;;;;;8.17;5.97;;;6.40;99.90;;;6.86;100.00;95276.00;2249063;55;33381;-57
2021/09/24 02:46:37;;;;;;;7.03;5.43;;;6.40;99.90;;;6.85;100.00;95295.00;2210472;57;26235;-57
2021/09/24 02:49:24;;;;;;;6.73;5.53;;;6.60;99.90;;;7.03;100.00;95291.00;2234280;56;26422;-58
2021/09/24 02:55:10;;;;;;;6.27;4.90;;;6.70;99.90;;;7.22;100.00;95288.00;2242286;56;33282;-57
2021/09/24 02:57:57;;;;;;;6.60;5.10;;;6.70;99.90;;;7.11;100.00;95313.00;2247567;56;26105;-57
2021/09/24 03:00:43;;;;;;;6.30;4.83;;;6.70;99.90;;;7.16;100.00;95309.00;2502593;54;26675;-58
2021/09/24 03:03:30;;;;;;;5.70;5.03;;;6.80;99.90;;;7.16;100.00;95315.00;2263568;56;26169;-57
2021/09/24 03:06:16;;;;;;;5.53;4.63;;;6.70;99.90;;;7.15;100.00;95330.00;2258952;56;26181;-57
2021/09/24 03:09:03;;;;;;;5.37;4.50;;;6.70;99.90;;;7.19;100.00;95338.00;2259187;56;26468;-57
2021/09/24 03:11:51;;;;;;;5.30;4.70;;;6.80;99.90;;;7.25;100.00;95328.00;2261067;55;26100;-57
2021/09/24 03:14:38;;;;;;;4.83;4.33;;;6.70;99.90;;;7.19;100.00;95341.00;2241223;55;26514;-57
2021/09/24 03:17:24;;;;;;;6.57;4.97;;;6.70;99.90;;;7.18;100.00;95337.00;2240911;56;26159;-57
2021/09/24 03:20:13;;;;;;;5.47;4.73;;;6.70;99.90;;;7.12;100.00;95345.00;2464601;55;26636;-58
2021/09/24 03:22:59;;;;;;;4.30;3.90;;;6.60;99.90;;;7.09;100.00;95335.00;2241003;55;26580;-57
2021/09/24 03:25:47;;;;;;;5.33;4.10;;;6.50;99.90;;;6.95;100.00;95346.00;2464347;55;26127;-57
2021/09/24 03:28:34;;;;;;;6.80;4.00;;;6.40;99.90;;;6.85;100.00;95347.00;2240970;55;26656;-57
2021/09/24 03:31:22;;;;;;;5.63;4.23;;;6.40;99.90;;;6.76;100.00;95347.00;2465242;55;26377;-57
2021/09/24 03:34:10;;;;;;;4.93;4.37;;;6.40;99.90;;;6.78;100.00;95345.00;2240463;55;26589;-58
2021/09/24 03:36:56;;;;;;;5.30;4.40;;;6.50;99.90;;;6.87;100.00;95349.00;2464750;55;26143;-58
2021/09/24 03:39:43;;;;;;;5.60;4.47;;;6.50;99.90;;;6.90;100.00;95346.00;2240847;55;26636;-57
2021/09/24 03:42:29;;;;;;;7.70;4.53;;;6.50;99.90;;;6.99;100.00;95349.00;2464948;55;26095;-57
2021/09/24 03:48:13;;;;;;;5.67;4.87;;;6.70;99.90;;;7.22;100.00;95327.00;2251507;55;33782;-57
2021/09/24 03:51:00;;;;;;;6.53;5.00;;;6.70;99.90;;;7.17;100.00;95337.00;2470429;55;26567;-57
2021/09/24 03:53:46;;;;;;;5.90;4.80;;;6.80;99.90;;;7.25;100.00;95346.00;2494569;55;26091;-58
2021/09/24 03:59:31;;;;;;;6.13;4.53;;;6.60;99.90;;;7.08;100.00;95328.00;2317175;54;33045;-57
2021/09/24 04:02:17;;;;;;;5.47;4.40;;;6.50;99.90;;;6.89;100.00;95344.00;2316910;55;26226;-58
2021/09/24 04:05:06;;;;;;;5.70;4.80;;;6.50;99.90;;;6.91;100.00;95354.00;2317297;54;27219;-58
2021/09/24 04:07:52;;;;;;;6.00;4.47;;;6.50;99.90;;;6.92;100.00;95341.00;2317813;54;26776;-57
2021/09/24 04:10:39;;;;;;;5.40;4.70;;;6.40;99.90;;;6.89;100.00;95342.00;2317073;55;26412;-57
2021/09/24 04:16:23;;;;;;;5.47;4.27;;;6.40;99.90;;;6.88;100.00;95322.00;2217072;57;33654;-58
2021/09/24 04:19:10;;;;;;;4.97;4.20;;;6.30;99.90;;;6.78;100.00;95348.00;2179574;56;26640;-57
2021/09/24 04:21:57;;;;;;;6.53;4.70;;;6.30;99.90;;;6.62;100.00;95345.00;2189477;57;26334;-57
2021/09/24 04:24:43;;;;;;;5.97;4.80;;;6.20;99.90;;;6.51;100.00;95342.00;2189719;57;26255;-58
2021/09/24 04:27:30;;;;;;;4.83;4.33;;;6.20;99.90;;;6.53;100.00;95353.00;2201664;56;26714;-57
2021/09/24 04:30:17;;;;;;;7.00;4.60;;;6.10;99.90;;;6.56;100.00;95351.00;2213725;56;26674;-58
2021/09/24 04:33:03;;;;;;;4.33;3.90;;;6.10;99.90;;;6.57;100.00;95344.00;2213882;56;26229;-58
2021/09/24 04:35:50;;;;;;;7.57;4.37;;;6.10;99.90;;;6.48;100.00;95342.00;2214216;56;26583;-57
2021/09/24 04:38:37;;;;;;;8.03;4.20;;;6.00;99.90;;;6.53;100.00;95335.00;2213889;56;26459;-58
2021/09/24 04:41:23;;;;;;;6.50;4.10;;;6.00;99.90;;;6.37;100.00;95333.00;2434239;57;26553;-57
2021/09/24 04:44:09;;;;;;;5.83;4.23;;;5.90;99.90;;;6.32;100.00;95342.00;2215376;58;26174;-57
2021/09/24 04:46:56;;;;;;;6.00;4.20;;;5.90;99.90;;;6.41;100.00;95347.00;2433637;57;26165;-58
2021/09/24 04:49:42;;;;;;;5.40;4.23;;;5.90;99.90;;;6.40;100.00;95342.00;2215440;58;26197;-58
2021/09/24 04:52:29;;;;;;;5.27;3.97;;;5.90;99.90;;;6.39;100.00;95346.00;2433919;57;26443;-57
2021/09/24 04:55:16;;;;;;;6.40;4.27;;;5.90;99.90;;;6.45;100.00;95350.00;2215602;58;26205;-58
2021/09/24 04:58:02;;;;;;;5.50;3.87;;;5.90;99.90;;;6.42;100.00;95354.00;2434531;57;26154;-58
2021/09/24 05:00:50;;;;;;;4.83;4.07;;;5.90;99.90;;;6.41;100.00;95357.00;2215528;58;26593;-57
2021/09/24 05:03:36;;;;;;;6.00;4.30;;;5.90;99.90;;;6.37;100.00;95359.00;2214303;57;26126;-57
2021/09/24 05:06:22;;;;;;;7.73;4.23;;;5.80;99.90;;;6.36;100.00;95352.00;2438562;56;26117;-57
2021/09/24 05:09:09;;;;;;;4.70;3.60;;;5.80;99.90;;;6.22;100.00;95357.00;2215480;56;26147;-57
2021/09/24 05:11:55;;;;;;;4.47;3.80;;;5.80;99.90;;;6.25;100.00;95352.00;2433501;57;26185;-58
2021/09/24 05:14:41;;;;;;;4.90;4.40;;;5.80;99.90;;;6.14;100.00;95352.00;2214775;57;26281;-58
2021/09/24 05:17:28;;;;;;;7.70;4.27;;;5.70;99.90;;;6.12;100.00;95349.00;2430729;57;26314;-57
2021/09/24 05:20:15;;;;;;;4.67;4.00;;;5.70;99.90;;;6.05;100.00;95353.00;2213170;58;26667;-57
2021/09/24 05:23:01;;;;;;;5.30;4.23;;;5.70;99.90;;;6.04;100.00;95352.00;2212930;58;26242;-57
2021/09/24 05:25:47;;;;;;;6.20;4.03;;;5.70;99.90;;;6.10;100.00;95358.00;2431879;57;26609;-57
2021/09/24 05:28:34;;;;;;;6.90;4.33;;;5.70;99.90;;;6.14;100.00;95357.00;2218801;57;26152;-57
2021/09/24 05:31:20;;;;;;;4.93;4.43;;;5.70;99.90;;;6.12;100.00;95365.00;2433095;56;26119;-58
2021/09/24 05:34:07;;;;;;;4.27;3.53;;;5.70;99.90;;;6.16;100.00;95367.00;2213748;56;26833;-58
2021/09/24 05:36:54;;;;;;;6.23;4.50;;;5.70;99.90;;;6.12;100.00;95360.00;2213326;56;26869;-57
2021/09/24 05:39:42;;;;;;;5.80;4.60;;;5.80;99.90;;;6.24;100.00;95370.00;2213520;56;26693;-57
2021/09/24 05:42:28;;;;;;;4.70;3.90;;;5.80;99.90;;;6.24;100.00;95368.00;2217171;56;26197;-58
2021/09/24 05:48:12;;;;;;;5.43;4.00;;;5.90;99.90;;;6.42;100.00;95356.00;2217925;56;33524;-57
2021/09/24 05:50:59;;;;;;;6.17;4.77;;;5.90;99.90;;;6.33;100.00;95383.00;2207528;56;26789;-57
2021/09/24 05:53:46;;;;;;;5.40;4.07;;;5.90;99.90;;;6.46;100.00;95383.00;2210900;57;26161;-57
2021/09/24 05:56:32;;;;;;;5.97;4.03;;;6.00;99.90;;;6.44;100.00;95381.00;2211449;57;26169;-58
2021/09/24 05:59:19;;;;;;;5.17;4.03;;;6.10;99.90;;;6.59;100.00;95386.00;2212476;57;26134;-57
2021/09/24 06:02:06;;;;;;;4.70;4.00;;;6.20;99.90;;;6.73;100.00;95381.00;2226271;56;27015;-58
2021/09/24 06:04:53;;;;;;;4.53;4.03;;;6.30;99.90;;;6.80;100.00;95383.00;2235495;56;26645;-58
2021/09/24 06:07:40;;;;;;;4.50;3.97;;;6.40;99.90;;;6.96;100.00;95387.00;2458248;56;26211;-58
2021/09/24 06:10:27;;;;;;;5.63;4.30;;;6.60;99.90;;;7.28;100.00;95398.00;2233848;57;26516;-57
2021/09/24 06:13:14;;;;;;;5.80;4.47;;;7.00;99.90;;;7.62;100.00;95401.00;2458272;56;26239;-58
2021/09/24 06:16:00;;;;;;;7.57;4.43;;;7.20;99.90;;;7.98;100.00;95401.00;2235503;56;26105;-57
2021/09/24 06:18:47;;;;;;;6.03;4.67;;;7.50;99.90;;;8.20;100.00;95404.00;2457289;56;26119;-58
2021/09/24 06:24:30;;;;;;;7.40;5.97;;;8.10;99.90;;;9.06;100.00;95388.00;2247930;55;33146;-58
2021/09/24 06:27:17;;;;;;;6.93;4.80;;;8.50;99.90;;;9.20;100.00;95403.00;2239493;55;26147;-57
2021/09/24 06:30:07;;;;;;;7.20;4.93;;;8.70;99.90;;;9.46;100.00;95418.00;2454419;56;26080;-58
2021/09/24 06:32:54;;;;;;;8.83;6.17;;;8.90;99.90;;;9.66;100.00;95415.00;2231811;56;26542;-57
2021/09/24 06:35:41;;;;;;;5.53;4.17;;;9.10;99.90;;;9.72;100.00;95412.00;2467965;55;26181;-58
2021/09/24 06:38:27;;;;;;;5.60;3.73;;;9.20;99.90;;;9.87;100.00;95418.00;2244013;56;26521;-57
2021/09/24 06:41:14;;;;;;;4.30;3.80;;;9.10;99.90;;;9.79;100.00;95410.00;2464804;55;26628;-58
2021/09/24 06:44:01;;;;;;;4.87;4.00;;;9.30;99.90;;;9.83;100.00;95413.00;2240835;56;26063;-58
2021/09/24 06:46:47;;;;;;;6.73;4.47;;;9.30;99.90;;;9.79;100.00;95414.00;2464763;55;26116;-57
2021/09/24 06:49:34;;;;;;;4.73;3.90;;;9.40;99.90;;;10.02;100.00;95414.00;2265664;55;26081;-59
2021/09/24 06:52:22;;;;;;;4.80;4.10;;;9.60;99.90;;;10.27;100.00;95416.00;2266656;55;26106;-58
2021/09/24 06:55:10;;;;;;;4.87;4.20;;;9.80;99.90;;;10.51;100.00;95415.00;2492468;54;26120;-60
2021/09/24 06:57:58;;;;;;;5.83;4.03;;;10.10;99.90;;;10.75;100.00;95417.00;2264877;55;26597;-58
2021/09/24 07:00:44;;;;;;;6.43;3.80;;;10.10;99.90;;;10.78;100.00;95417.00;2460374;56;26617;-58
2021/09/24 07:03:30;;;;;;;3.70;3.23;;;10.40;99.90;;;11.09;100.00;95410.00;2208330;56;26686;-57
2021/09/24 07:06:17;;;;;;;4.67;3.40;;;10.60;99.90;;;11.35;100.00;95404.00;2428231;56;26661;-57
2021/09/24 07:09:04;;;;;;;5.47;3.70;;;10.80;99.90;;;11.64;100.00;95400.00;2210369;56;26104;-58
2021/09/24 07:11:51;;;;;;;8.10;4.00;;;11.00;99.90;;;11.78;100.00;95402.00;2426256;56;26317;-58
2021/09/24 07:14:38;;;;;;;7.05;3.90;;;11.50;99.90;;;12.67;100.00;95398.00;2209419;56;26153;-58
2021/09/24 07:17:25;;;;;;;6.12;3.55;;;13.00;99.90;;;14.81;100.00;95390.00;2209724;56;26216;-58
2021/09/24 07:23:09;;;;;;;9.40;3.70;;;13.20;99.90;;;14.56;100.00;95367.00;2272383;55;33302;-59
2021/09/24 07:25:56;;;;;;;4.93;3.90;;;13.70;99.90;;;15.49;100.00;95372.00;2247727;56;26194;-58
2021/09/24 07:28:43;;;;;;;5.50;3.80;;;14.80;99.90;;;17.35;100.00;95367.00;2240859;55;27119;-58
2021/09/24 07:31:30;;;;;;;5.68;3.47;;;15.80;99.90;;;18.46;100.00;95366.00;2235834;55;26602;-58
2021/09/24 07:34:16;;;;;;;6.30;3.53;;;17.10;99.90;;;19.94;100.00;95364.00;2236707;55;26228;-59
2021/09/24 07:37:04;;;;;;;4.80;3.50;;;17.90;99.90;;;20.70;100.00;95365.00;2236722;55;26133;-58
2021/09/24 07:39:50;;;;;;;5.35;3.40;;;18.10;99.90;;;20.32;100.00;95357.00;2249830;55;26147;-58
2021/09/24 07:42:36;;;;;;;5.68;3.62;;;17.80;99.90;;;20.03;100.00;95369.00;2287764;55;26079;-58
2021/09/24 07:45:24;;;;;;;4.45;3.15;;;17.40;99.90;;;19.30;100.00;95373.00;2288873;55;26612;-58
2021/09/24 07:48:12;;;;;;;6.43;3.10;;;17.60;99.90;;;19.68;100.00;95378.00;2522564;54;26142;-58
2021/09/24 07:50:58;;;;;;;3.47;3.17;;;17.70;99.90;;;19.16;100.00;95371.00;2288617;55;26177;-58
2021/09/24 07:53:45;;;;;;;5.68;3.20;;;17.30;99.90;;;18.74;100.00;95373.00;2523030;54;27002;-58
2021/09/24 07:56:31;;;;;;;3.47;3.17;;;17.70;99.90;;;19.46;100.00;95376.00;2288742;55;26179;-58
2021/09/24 07:59:18;;;;;;;4.78;3.10;;;18.90;99.90;;;21.39;100.00;95368.00;2522720;54;26146;-58
2021/09/24 08:02:05;;;;;;;5.22;2.90;;;20.40;99.90;;;23.24;100.00;95372.00;2279639;55;26194;-59
2021/09/24 08:04:51;;;;;;;3.60;3.30;;;21.50;99.90;;;24.44;100.00;95368.00;2498744;55;26171;-58
2021/09/24 08:07:38;;;;;;;3.45;3.12;;;22.70;99.90;;;25.02;100.00;95370.00;2292164;56;26096;-57
2021/09/24 08:10:25;;;;;;;4.53;3.25;;;22.80;99.90;;;25.28;100.00;95368.00;2292038;56;26108;-58
2021/09/24 08:13:12;;;;;;;4.97;4.50;;;23.50;99.90;;;26.47;100.00;95368.00;2526596;55;26649;-57
2021/09/24 08:15:58;;;;;;;5.32;4.62;;;23.10;99.90;;;25.44;98.82;95367.00;2292246;56;25040;-58
2021/09/24 08:18:44;;;;;;;6.35;4.60;;;23.20;99.90;;;26.28;100.00;95367.00;2526577;55;25144;-58
2021/09/24 08:21:31;;;;;;;4.72;4.32;;;23.20;99.90;;;26.22;92.98;95370.00;2292008;55;25069;-58
2021/09/24 08:24:17;;;;;;;5.30;4.80;;;22.60;99.90;;;24.64;99.58;95373.00;2527202;55;26200;-57
2021/09/24 08:30:02;;;;;;;5.22;4.40;;;20.50;99.90;;;21.95;100.00;95377.00;2217305;57;33526;-55
2021/09/24 08:32:49;;;;;;;4.80;4.40;;;19.60;99.90;;;20.67;100.00;95381.00;2214924;56;26220;-55
2021/09/24 08:35:35;;;;;;;6.25;5.40;;;18.70;99.90;;;19.47;100.00;95383.00;2431696;56;26633;-55
2021/09/24 08:38:22;;;;;;;5.30;4.80;;;18.00;99.90;;;18.72;100.00;95388.00;2227555;56;26141;-56
2021/09/24 08:41:08;;;;;;;5.70;5.20;;;17.40;99.90;;;18.20;100.00;95385.00;2448777;55;26746;-55
2021/09/24 08:43:59;;;;;;;4.93;4.43;;;17.30;99.90;;;18.05;100.00;95376.00;2240884;56;26595;-55
2021/09/24 08:46:49;;;;;;;7.20;4.50;;;17.40;99.90;;;18.06;100.00;95372.00;2464732;55;26208;-56
2021/09/24 08:49:38;;;;;;;5.50;4.75;;;17.70;99.90;;;18.76;100.00;95371.00;2259760;56;26659;-55
2021/09/24 08:52:24;;;;;;;5.22;4.78;;;18.30;99.90;;;19.38;100.00;95378.00;2489906;55;26178;-55
2021/09/24 08:55:13;;;;;;;6.10;4.62;;;18.20;99.90;;;19.24;100.00;95372.00;2488147;55;26205;-55
2021/09/24 08:58:01;;;;;;;6.15;5.10;;;18.20;99.90;;;19.07;100.00;95384.00;2261571;56;26538;-55
2021/09/24 09:00:48;;;;;;;4.97;4.50;;;18.00;99.90;;;18.92;100.00;95378.00;2261310;56;26110;-55
2021/09/24 09:03:40;;;;;;;6.45;4.85;;;18.00;99.90;;;18.95;100.00;95386.00;2237320;56;26179;-56
2021/09/24 09:06:30;;;;;;;6.28;5.12;;;18.20;99.90;;;19.46;100.00;95378.00;2237067;56;26084;-55
2021/09/24 09:09:17;;;;;;;4.93;4.43;;;18.60;99.90;;;19.87;100.00;95374.00;2459482;55;26194;-54
2021/09/24 09:12:17;;;;;;;5.82;4.70;;;18.50;99.90;;;19.48;100.00;95376.00;2236585;56;26091;-55
2021/09/24 09:15:10;;;;;;;4.55;4.15;;;18.70;99.90;;;19.74;100.00;95374.00;2459341;55;26095;-56
2021/09/24 09:17:58;;;;;;;5.20;4.70;;;18.90;99.90;;;20.29;100.00;95368.00;2236773;56;26118;-55
2021/09/24 09:20:47;;;;;;;4.70;4.30;;;19.30;99.90;;;20.96;100.00;95375.00;2236499;56;26079;-54
2021/09/24 09:23:39;;;;;;;5.68;4.50;;;19.50;99.90;;;21.33;100.00;95367.00;2236793;56;26107;-55
2021/09/24 09:26:26;;;;;;;5.10;4.65;;;20.00;99.90;;;21.64;100.00;95362.00;2236905;56;26127;-56
2021/09/24 09:29:14;;;;;;;5.18;4.68;;;20.40;99.90;;;22.38;100.00;95359.00;2236270;56;26972;-55
2021/09/24 09:32:01;;;;;;;5.82;4.78;;;20.90;99.90;;;22.79;100.00;95363.00;2459693;55;26100;-55
2021/09/24 09:34:49;;;;;;;4.60;4.03;;;21.20;99.90;;;22.99;100.00;95364.00;2236574;56;26091;-55
2021/09/24 09:37:39;;;;;;;5.37;4.28;;;21.70;99.90;;;23.55;100.00;95353.00;2459559;55;26616;-55
2021/09/24 09:40:27;;;;;;;4.75;4.35;;;22.60;99.90;;;25.39;100.00;95351.00;2458479;55;26190;-55
2021/09/24 09:46:20;;;;;;;6.35;4.20;;;24.30;99.90;;;29.78;79.46;95343.00;2217171;57;32871;-57
2021/09/24 09:49:10;;;;;;;4.75;4.30;;;26.40;99.90;;;30.10;71.58;95351.00;2445763;55;26710;-58
2021/09/24 09:52:12;;;;;;;4.70;4.25;;;26.50;99.90;;;30.17;64.90;95348.00;2226790;55;26172;-57
2021/09/24 09:55:02;;;;;;;6.22;4.18;;;27.90;99.90;;;31.79;63.35;95344.00;2453175;55;25213;-57
2021/09/24 09:57:52;;;;;;;5.35;4.50;;;27.70;99.90;;;30.61;53.34;95337.00;2217799;56;25138;-57
2021/09/24 10:00:58;;;;;;;4.57;4.18;;;26.80;99.90;;;30.05;56.52;95334.00;2229517;57;25079;-58
2021/09/24 10:06:48;;;;;;;4.70;4.15;;;26.00;99.90;;;28.29;62.42;95334.00;2196593;55;32736;-57
2021/09/24 10:09:34;;;;;;;5.60;5.00;;;25.40;99.90;;;28.74;63.08;95317.00;2162323;58;25237;-57
2021/09/24 10:12:24;;;;;;;5.15;4.65;;;25.30;99.90;;;28.37;64.51;95330.00;2162902;58;26087;-58
2021/09/24 10:15:14;;;;;;;5.43;4.68;;;25.40;99.90;;;28.89;72.07;95316.00;2163998;58;26214;-57
2021/09/24 10:18:00;;;;;;;5.00;4.50;;;26.20;99.90;;;29.52;64.78;95311.00;2372379;58;26132;-57
2021/09/24 10:20:48;;;;;;;5.78;4.78;;;27.00;99.90;;;30.88;62.18;95318.00;2163740;58;25160;-57
2021/09/24 10:23:34;;;;;;;5.30;4.43;;;28.20;99.90;;;32.96;53.25;95316.00;2372165;58;25098;-58
2021/09/24 10:26:28;;;;;;;4.90;4.50;;;29.40;99.90;;;34.23;54.80;95312.00;2164107;58;25233;-58
2021/09/24 10:29:21;;;;;;;4.80;4.35;;;29.80;99.90;;;33.79;45.40;95313.00;2161543;58;25625;-58
2021/09/24 10:32:16;;;;;;;5.70;5.03;;;29.00;99.90;;;32.88;48.25;95311.00;2376088;57;25160;-57
2021/09/24 10:35:07;;;;;;;5.53;5.03;;;27.30;99.90;;;30.04;55.86;95302.00;2167103;58;25606;-57
2021/09/24 10:41:07;;;;;;;5.35;4.87;;;28.10;99.90;;;32.94;48.68;95293.00;2242640;57;32350;-58
2021/09/24 10:43:56;;;;;;;5.05;4.65;;;28.00;99.90;;;32.41;51.66;95301.00;2467389;55;25237;-57
2021/09/24 10:46:44;;;;;;;4.85;4.40;;;27.70;99.90;;;31.40;53.59;95300.00;2266380;56;25123;-57
2021/09/24 10:49:33;;;;;;;5.18;4.68;;;27.40;99.90;;;30.93;58.22;95294.00;2265383;56;26566;-58
2021/09/24 10:52:19;;;;;;;5.72;5.12;;;28.00;99.90;;;32.70;57.21;95291.00;2265684;56;25123;-57
2021/09/24 10:55:09;;;;;;;5.18;4.78;;;27.60;99.90;;;32.17;46.55;95285.00;2265085;56;25156;-58
2021/09/24 10:57:57;;;;;;;4.78;4.37;;;28.80;99.90;;;34.01;44.64;95279.00;2490760;55;25202;-58
2021/09/24 11:00:49;;;;;;;5.28;4.45;;;28.40;99.90;;;31.90;46.10;95282.00;2266110;56;25162;-57
2021/09/24 11:03:52;;;;;;;6.28;4.65;;;28.90;99.90;;;34.06;50.53;95271.00;2241140;56;25184;-58
2021/09/24 11:09:54;;;;;;;5.85;5.35;;;29.30;99.90;;;33.79;43.36;95271.00;2245185;56;32822;-57
2021/09/24 11:13:08;;;;;;;7.07;5.05;;;29.10;99.90;;;33.61;43.98;95265.00;2436214;55;25073;-57
2021/09/24 11:19:01;;;;;;;5.53;5.03;;;28.10;99.90;;;32.29;51.76;95263.00;2245784;56;32207;-58
2021/09/24 11:22:15;;;;;;;5.10;4.70;;;28.90;99.90;;;32.99;47.83;95267.00;2246420;56;25146;-58
2021/09/24 11:25:12;;;;;;;5.60;5.10;;;28.50;99.90;;;31.95;53.42;95266.00;2481489;55;25177;-57
2021/09/24 11:28:00;;;;;;;5.90;5.10;;;28.90;99.90;;;32.53;46.73;95267.00;2261101;56;25076;-58
2021/09/24 11:30:48;;;;;;;6.22;4.80;;;28.00;99.90;;;29.98;49.38;95266.00;2455183;55;25122;-57
2021/09/24 11:33:46;;;;;;;5.18;4.50;;;28.00;99.90;;;30.96;55.65;95261.00;2232271;54;25159;-57
2021/09/24 11:37:01;;;;;;;5.35;4.90;;;27.60;99.90;;;30.53;59.75;95257.00;2235632;57;25214;-57
2021/09/24 11:39:55;;;;;;;5.32;4.87;;;27.20;99.90;;;29.34;60.53;95262.00;2236590;56;26599;-58
2021/09/24 11:42:44;;;;;;;5.80;5.30;;;27.30;99.90;;;29.83;65.48;95259.00;2259942;55;26099;-57
2021/09/24 11:45:31;;;;;;;6.43;4.80;;;27.80;99.90;;;30.17;59.54;95253.00;2287114;55;25107;-57
2021/09/24 11:51:26;;;;;;;5.62;5.12;;;27.50;99.90;;;29.16;61.47;95244.00;2227065;55;32818;-56
2021/09/24 11:54:20;;;;;;;5.50;5.05;;;27.30;99.90;;;28.72;65.46;95246.00;2231506;55;25161;-58
2021/09/24 11:57:15;;;;;;;5.50;4.97;;;26.80;99.90;;;27.89;81.21;95251.00;2211520;56;25146;-57
2021/09/24 12:00:01;;;;;;;10.50;5.87;;;26.90;99.90;;;28.67;77.48;95232.00;2464280;55;26162;-57
2021/09/24 12:02:48;;;;;;;5.50;5.00;;;26.00;99.90;;;26.32;81.02;95236.00;2235253;56;26521;-57
2021/09/24 12:05:34;;;;;;;7.18;5.20;;;25.00;99.90;;;25.74;97.72;95240.00;2488182;55;26106;-58
2021/09/24 12:08:23;;;;;;;5.93;5.20;;;24.90;99.90;;;25.34;98.04;95243.00;2488242;55;26195;-57
2021/09/24 12:11:13;;;;;;;8.35;5.57;;;23.90;99.90;;;24.34;100.00;95230.00;2487650;55;26501;-57
2021/09/24 12:14:06;;;;;;;5.37;4.93;;;23.40;99.90;;;24.11;100.00;95231.00;2260166;56;26552;-57
2021/09/24 12:16:53;;;;;;;8.07;4.93;;;24.30;99.90;;;25.24;100.00;95229.00;2487951;55;26142;-57
2021/09/24 12:19:39;;;;;;;6.05;4.45;;;24.70;99.90;;;25.43;100.00;95231.00;2260251;56;26545;-57
2021/09/24 12:22:27;;;;;;;5.90;5.05;;;25.20;99.90;;;26.08;100.00;95234.00;2260595;56;26565;-58
2021/09/24 12:25:16;;;;;;;7.62;5.20;;;25.20;99.90;;;25.59;100.00;95224.00;2488889;55;26223;-57
2021/09/24 12:28:10;;;;;;;5.72;5.22;;;25.10;99.90;;;25.15;100.00;95216.00;2259798;56;26230;-58
2021/09/24 12:30:57;;;;;;;7.20;5.10;;;24.70;99.90;;;24.48;100.00;95221.00;2260146;56;26143;-57
2021/09/24 12:33:53;;;;;;;5.30;4.80;;;23.80;99.90;;;23.81;100.00;95220.00;2260459;56;26135;-57
2021/09/24 12:39:59;;;;;;;7.50;5.60;;;23.20;99.90;;;23.29;100.00;95204.00;2258413;54;33314;-59
2021/09/24 12:42:49;;;;;;;4.95;4.50;;;22.80;99.90;;;22.96;100.00;95201.00;2259705;55;26179;-57